sensor_id;sensor_type;location;lat;lon;timestamp;P1;durP1;ratioP1;P2;durP2;ratioP2
16640;SDS011;8434;47.990;7.880;2022-12-07T00:01:34;16.47;;;10.73;;
16640;SDS011;8434;47.990;7.880;2022-12-07T00:04:19;15.00;;;11.23;;
16640;SDS011;8434;47.990;7.880;2022-12-07T00:07:04;13.37;;;9.70;;
16640;SDS011;8434;47.990;7.880;2022-12-07T00:09:52;15.60;;;10.60;;
16640;SDS011;8434;47.990;7.880;2022-12-07T00:12:37;16.03;;;9.93;;
16640;SDS011;8434;47.990;7.880;2022-12-07T00:15:22;13.73;;;9.83;;
16640;SDS011;8434;47.990;7.880;2022-12-07T00:18:08;17.67;;;10.63;;
16640;SDS011;8434;47.990;7.880;2022-12-07T00:20:53;16.13;;;10.03;;
16640;SDS011;8434;47.990;7.880;2022-12-07T00:23:44;14.93;;;10.43;;
16640;SDS011;8434;47.990;7.880;2022-12-07T00:26:30;16.10;;;10.53;;
16640;SDS011;8434;47.990;7.880;2022-12-07T00:29:16;15.17;;;10.57;;
16640;SDS011;8434;47.990;7.880;2022-12-07T00:32:02;15.67;;;10.10;;
16640;SDS011;8434;47.990;7.880;2022-12-07T00:34:48;14.33;;;10.20;;
16640;SDS011;8434;47.990;7.880;2022-12-07T00:37:33;15.40;;;10.43;;
16640;SDS011;8434;47.990;7.880;2022-12-07T00:40:18;17.17;;;10.73;;
16640;SDS011;8434;47.990;7.880;2022-12-07T00:43:03;14.50;;;9.67;;
16640;SDS011;8434;47.990;7.880;2022-12-07T00:45:48;12.80;;;9.80;;
16640;SDS011;8434;47.990;7.880;2022-12-07T00:48:33;17.23;;;10.17;;
16640;SDS011;8434;47.990;7.880;2022-12-07T00:51:20;14.10;;;10.03;;
16640;SDS011;8434;47.990;7.880;2022-12-07T00:54:05;14.70;;;10.23;;
16640;SDS011;8434;47.990;7.880;2022-12-07T00:56:50;14.97;;;10.63;;
16640;SDS011;8434;47.990;7.880;2022-12-07T00:59:35;16.37;;;10.47;;
16640;SDS011;8434;47.990;7.880;2022-12-07T01:02:20;18.33;;;10.73;;
16640;SDS011;8434;47.990;7.880;2022-12-07T01:05:06;14.43;;;9.83;;
16640;SDS011;8434;47.990;7.880;2022-12-07T01:07:52;13.43;;;9.80;;
16640;SDS011;8434;47.990;7.880;2022-12-07T01:10:37;15.03;;;10.27;;
16640;SDS011;8434;47.990;7.880;2022-12-07T01:13:22;15.33;;;9.87;;
16640;SDS011;8434;47.990;7.880;2022-12-07T01:16:07;14.50;;;10.23;;
16640;SDS011;8434;47.990;7.880;2022-12-07T01:18:52;12.30;;;9.10;;
16640;SDS011;8434;47.990;7.880;2022-12-07T01:21:40;16.07;;;10.03;;
16640;SDS011;8434;47.990;7.880;2022-12-07T01:24:26;15.47;;;10.10;;
16640;SDS011;8434;47.990;7.880;2022-12-07T01:27:11;14.77;;;9.37;;
16640;SDS011;8434;47.990;7.880;2022-12-07T01:29:55;15.10;;;10.07;;
16640;SDS011;8434;47.990;7.880;2022-12-07T01:32:40;14.20;;;10.00;;
16640;SDS011;8434;47.990;7.880;2022-12-07T01:35:25;14.50;;;10.23;;
16640;SDS011;8434;47.990;7.880;2022-12-07T01:38:10;14.60;;;9.93;;
16640;SDS011;8434;47.990;7.880;2022-12-07T01:40:56;13.07;;;8.80;;
16640;SDS011;8434;47.990;7.880;2022-12-07T01:46:42;12.90;;;9.23;;
16640;SDS011;8434;47.990;7.880;2022-12-07T01:49:29;15.27;;;9.57;;
16640;SDS011;8434;47.990;7.880;2022-12-07T01:52:16;16.97;;;9.23;;
16640;SDS011;8434;47.990;7.880;2022-12-07T01:55:03;13.53;;;9.63;;
16640;SDS011;8434;47.990;7.880;2022-12-07T01:57:50;14.40;;;9.77;;
16640;SDS011;8434;47.990;7.880;2022-12-07T02:00:36;15.70;;;10.57;;
16640;SDS011;8434;47.990;7.880;2022-12-07T02:03:22;13.47;;;9.17;;
16640;SDS011;8434;47.990;7.880;2022-12-07T02:06:08;14.30;;;10.07;;
16640;SDS011;8434;47.990;7.880;2022-12-07T02:08:54;14.00;;;10.17;;
16640;SDS011;8434;47.990;7.880;2022-12-07T02:11:39;16.40;;;11.10;;
16640;SDS011;8434;47.990;7.880;2022-12-07T02:14:26;18.00;;;10.97;;
16640;SDS011;8434;47.990;7.880;2022-12-07T02:17:12;19.93;;;12.20;;
16640;SDS011;8434;47.990;7.880;2022-12-07T02:20:11;19.27;;;12.23;;
16640;SDS011;8434;47.990;7.880;2022-12-07T02:23:00;20.33;;;12.17;;
16640;SDS011;8434;47.990;7.880;2022-12-07T02:25:58;24.97;;;14.00;;
16640;SDS011;8434;47.990;7.880;2022-12-07T02:28:54;23.73;;;14.53;;
16640;SDS011;8434;47.990;7.880;2022-12-07T02:31:49;28.50;;;16.97;;
16640;SDS011;8434;47.990;7.880;2022-12-07T02:34:39;28.23;;;17.20;;
16640;SDS011;8434;47.990;7.880;2022-12-07T02:37:28;30.17;;;16.57;;
16640;SDS011;8434;47.990;7.880;2022-12-07T02:40:18;29.47;;;17.20;;
16640;SDS011;8434;47.990;7.880;2022-12-07T02:43:04;30.37;;;17.07;;
16640;SDS011;8434;47.990;7.880;2022-12-07T02:45:53;26.97;;;16.63;;
16640;SDS011;8434;47.990;7.880;2022-12-07T02:48:40;29.77;;;16.93;;
16640;SDS011;8434;47.990;7.880;2022-12-07T02:51:27;27.80;;;16.77;;
16640;SDS011;8434;47.990;7.880;2022-12-07T02:54:15;29.87;;;16.03;;
16640;SDS011;8434;47.990;7.880;2022-12-07T02:57:01;26.67;;;14.87;;
16640;SDS011;8434;47.990;7.880;2022-12-07T02:59:54;26.70;;;15.50;;
16640;SDS011;8434;47.990;7.880;2022-12-07T03:02:46;24.23;;;14.60;;
16640;SDS011;8434;47.990;7.880;2022-12-07T03:05:37;22.27;;;14.27;;
16640;SDS011;8434;47.990;7.880;2022-12-07T03:08:27;22.37;;;13.90;;
16640;SDS011;8434;47.990;7.880;2022-12-07T03:11:15;18.77;;;12.93;;
16640;SDS011;8434;47.990;7.880;2022-12-07T03:14:02;23.33;;;13.67;;
16640;SDS011;8434;47.990;7.880;2022-12-07T03:16:50;20.23;;;12.63;;
16640;SDS011;8434;47.990;7.880;2022-12-07T03:19:38;14.53;;;8.33;;
16640;SDS011;8434;47.990;7.880;2022-12-07T03:22:24;7.90;;;5.70;;
16640;SDS011;8434;47.990;7.880;2022-12-07T03:25:11;9.80;;;7.03;;
16640;SDS011;8434;47.990;7.880;2022-12-07T03:27:58;10.30;;;7.10;;
16640;SDS011;8434;47.990;7.880;2022-12-07T03:30:46;10.63;;;7.20;;
16640;SDS011;8434;47.990;7.880;2022-12-07T03:33:35;10.10;;;6.93;;
16640;SDS011;8434;47.990;7.880;2022-12-07T03:36:23;12.63;;;7.30;;
16640;SDS011;8434;47.990;7.880;2022-12-07T03:39:12;10.87;;;7.37;;
16640;SDS011;8434;47.990;7.880;2022-12-07T03:41:59;7.83;;;6.10;;
16640;SDS011;8434;47.990;7.880;2022-12-07T03:44:45;9.93;;;6.80;;
16640;SDS011;8434;47.990;7.880;2022-12-07T03:47:31;12.77;;;7.50;;
16640;SDS011;8434;47.990;7.880;2022-12-07T03:50:19;11.50;;;7.47;;
16640;SDS011;8434;47.990;7.880;2022-12-07T03:53:09;9.73;;;6.90;;
16640;SDS011;8434;47.990;7.880;2022-12-07T03:55:55;9.23;;;6.00;;
16640;SDS011;8434;47.990;7.880;2022-12-07T03:58:42;11.13;;;7.03;;
16640;SDS011;8434;47.990;7.880;2022-12-07T04:01:27;9.03;;;5.80;;
16640;SDS011;8434;47.990;7.880;2022-12-07T04:04:12;8.73;;;5.77;;
16640;SDS011;8434;47.990;7.880;2022-12-07T04:06:56;9.60;;;6.47;;
16640;SDS011;8434;47.990;7.880;2022-12-07T04:09:43;9.27;;;5.97;;
16640;SDS011;8434;47.990;7.880;2022-12-07T04:12:28;10.73;;;6.67;;
16640;SDS011;8434;47.990;7.880;2022-12-07T04:15:13;9.77;;;6.13;;
16640;SDS011;8434;47.990;7.880;2022-12-07T04:17:58;9.77;;;6.50;;
16640;SDS011;8434;47.990;7.880;2022-12-07T04:20:43;9.40;;;6.80;;
16640;SDS011;8434;47.990;7.880;2022-12-07T04:23:28;8.13;;;5.93;;
16640;SDS011;8434;47.990;7.880;2022-12-07T04:26:14;10.67;;;6.83;;
16640;SDS011;8434;47.990;7.880;2022-12-07T04:28:59;10.10;;;7.00;;
16640;SDS011;8434;47.990;7.880;2022-12-07T04:31:44;11.77;;;6.83;;
16640;SDS011;8434;47.990;7.880;2022-12-07T04:34:30;8.87;;;6.07;;
16640;SDS011;8434;47.990;7.880;2022-12-07T04:37:14;9.30;;;5.97;;
16640;SDS011;8434;47.990;7.880;2022-12-07T04:40:00;7.73;;;5.47;;
16640;SDS011;8434;47.990;7.880;2022-12-07T04:42:47;9.93;;;6.87;;
16640;SDS011;8434;47.990;7.880;2022-12-07T04:45:31;9.67;;;6.20;;
16640;SDS011;8434;47.990;7.880;2022-12-07T04:48:16;10.20;;;5.87;;
16640;SDS011;8434;47.990;7.880;2022-12-07T04:51:02;8.93;;;6.03;;
16640;SDS011;8434;47.990;7.880;2022-12-07T04:53:47;10.30;;;6.80;;
16640;SDS011;8434;47.990;7.880;2022-12-07T04:56:32;9.17;;;6.00;;
16640;SDS011;8434;47.990;7.880;2022-12-07T04:59:20;9.00;;;6.07;;
16640;SDS011;8434;47.990;7.880;2022-12-07T05:02:05;8.47;;;6.10;;
16640;SDS011;8434;47.990;7.880;2022-12-07T05:04:50;7.80;;;6.10;;
16640;SDS011;8434;47.990;7.880;2022-12-07T05:07:35;8.13;;;5.60;;
16640;SDS011;8434;47.990;7.880;2022-12-07T05:10:20;9.03;;;6.10;;
16640;SDS011;8434;47.990;7.880;2022-12-07T05:13:04;10.53;;;6.00;;
16640;SDS011;8434;47.990;7.880;2022-12-07T05:15:51;8.13;;;6.17;;
16640;SDS011;8434;47.990;7.880;2022-12-07T05:18:36;8.43;;;5.53;;
16640;SDS011;8434;47.990;7.880;2022-12-07T05:21:21;8.33;;;5.63;;
16640;SDS011;8434;47.990;7.880;2022-12-07T05:24:07;8.47;;;5.40;;
16640;SDS011;8434;47.990;7.880;2022-12-07T05:26:52;6.93;;;5.17;;
16640;SDS011;8434;47.990;7.880;2022-12-07T05:29:37;6.80;;;4.53;;
16640;SDS011;8434;47.990;7.880;2022-12-07T05:32:23;6.37;;;4.97;;
16640;SDS011;8434;47.990;7.880;2022-12-07T05:35:08;8.50;;;4.73;;
16640;SDS011;8434;47.990;7.880;2022-12-07T05:37:53;5.77;;;4.17;;
16640;SDS011;8434;47.990;7.880;2022-12-07T05:40:38;6.43;;;4.40;;
16640;SDS011;8434;47.990;7.880;2022-12-07T05:43:23;5.67;;;4.23;;
16640;SDS011;8434;47.990;7.880;2022-12-07T05:46:06;5.70;;;3.80;;
16640;SDS011;8434;47.990;7.880;2022-12-07T05:48:53;4.97;;;3.80;;
16640;SDS011;8434;47.990;7.880;2022-12-07T05:51:38;4.80;;;3.73;;
16640;SDS011;8434;47.990;7.880;2022-12-07T05:54:22;6.00;;;3.67;;
16640;SDS011;8434;47.990;7.880;2022-12-07T05:57:07;6.33;;;3.73;;
16640;SDS011;8434;47.990;7.880;2022-12-07T05:59:53;5.03;;;3.40;;
16640;SDS011;8434;47.990;7.880;2022-12-07T06:02:37;6.23;;;3.87;;
16640;SDS011;8434;47.990;7.880;2022-12-07T06:05:23;5.87;;;3.87;;
16640;SDS011;8434;47.990;7.880;2022-12-07T06:08:09;4.60;;;3.17;;
16640;SDS011;8434;47.990;7.880;2022-12-07T06:10:54;5.43;;;3.93;;
16640;SDS011;8434;47.990;7.880;2022-12-07T06:13:53;5.43;;;3.77;;
16640;SDS011;8434;47.990;7.880;2022-12-07T06:16:38;5.03;;;3.60;;
16640;SDS011;8434;47.990;7.880;2022-12-07T06:19:23;5.03;;;2.97;;
16640;SDS011;8434;47.990;7.880;2022-12-07T06:22:10;3.97;;;3.20;;
16640;SDS011;8434;47.990;7.880;2022-12-07T06:24:55;5.47;;;3.83;;
16640;SDS011;8434;47.990;7.880;2022-12-07T06:27:40;6.60;;;4.60;;
16640;SDS011;8434;47.990;7.880;2022-12-07T06:30:25;6.80;;;4.60;;
16640;SDS011;8434;47.990;7.880;2022-12-07T06:33:10;6.93;;;5.13;;
16640;SDS011;8434;47.990;7.880;2022-12-07T06:35:54;6.00;;;4.17;;
16640;SDS011;8434;47.990;7.880;2022-12-07T06:38:41;6.40;;;4.47;;
16640;SDS011;8434;47.990;7.880;2022-12-07T06:41:26;6.37;;;4.50;;
16640;SDS011;8434;47.990;7.880;2022-12-07T06:44:10;7.60;;;4.33;;
16640;SDS011;8434;47.990;7.880;2022-12-07T06:46:55;9.07;;;5.37;;
16640;SDS011;8434;47.990;7.880;2022-12-07T06:49:40;9.33;;;5.27;;
16640;SDS011;8434;47.990;7.880;2022-12-07T06:52:25;8.53;;;5.70;;
16640;SDS011;8434;47.990;7.880;2022-12-07T06:55:11;9.00;;;5.80;;
16640;SDS011;8434;47.990;7.880;2022-12-07T06:57:56;7.87;;;5.10;;
16640;SDS011;8434;47.990;7.880;2022-12-07T07:00:41;10.13;;;6.00;;
16640;SDS011;8434;47.990;7.880;2022-12-07T07:03:26;9.43;;;5.70;;
16640;SDS011;8434;47.990;7.880;2022-12-07T07:06:11;6.87;;;4.57;;
16640;SDS011;8434;47.990;7.880;2022-12-07T07:08:57;7.07;;;4.57;;
16640;SDS011;8434;47.990;7.880;2022-12-07T07:11:43;7.27;;;4.43;;
16640;SDS011;8434;47.990;7.880;2022-12-07T07:14:27;6.90;;;4.00;;
16640;SDS011;8434;47.990;7.880;2022-12-07T07:17:12;6.73;;;4.43;;
16640;SDS011;8434;47.990;7.880;2022-12-07T07:19:57;9.43;;;5.40;;
16640;SDS011;8434;47.990;7.880;2022-12-07T07:22:42;9.63;;;6.30;;
16640;SDS011;8434;47.990;7.880;2022-12-07T07:25:26;10.87;;;6.93;;
16640;SDS011;8434;47.990;7.880;2022-12-07T07:28:13;11.43;;;7.67;;
16640;SDS011;8434;47.990;7.880;2022-12-07T07:30:58;9.37;;;6.33;;
16640;SDS011;8434;47.990;7.880;2022-12-07T07:33:44;10.00;;;4.93;;
16640;SDS011;8434;47.990;7.880;2022-12-07T07:36:29;11.03;;;5.80;;
16640;SDS011;8434;47.990;7.880;2022-12-07T07:39:14;7.30;;;4.40;;
16640;SDS011;8434;47.990;7.880;2022-12-07T07:41:59;8.13;;;4.70;;
16640;SDS011;8434;47.990;7.880;2022-12-07T07:44:45;8.07;;;4.77;;
16640;SDS011;8434;47.990;7.880;2022-12-07T07:47:30;8.67;;;5.13;;
16640;SDS011;8434;47.990;7.880;2022-12-07T07:50:15;8.23;;;5.03;;
16640;SDS011;8434;47.990;7.880;2022-12-07T07:53:00;7.37;;;4.20;;
16640;SDS011;8434;47.990;7.880;2022-12-07T07:55:50;7.83;;;4.73;;
16640;SDS011;8434;47.990;7.880;2022-12-07T07:58:35;6.97;;;4.67;;
16640;SDS011;8434;47.990;7.880;2022-12-07T08:01:24;7.47;;;4.40;;
16640;SDS011;8434;47.990;7.880;2022-12-07T08:04:09;7.47;;;4.80;;
16640;SDS011;8434;47.990;7.880;2022-12-07T08:06:54;9.77;;;5.80;;
16640;SDS011;8434;47.990;7.880;2022-12-07T08:09:39;9.43;;;5.93;;
16640;SDS011;8434;47.990;7.880;2022-12-07T08:12:23;9.77;;;6.27;;
16640;SDS011;8434;47.990;7.880;2022-12-07T08:15:09;11.17;;;6.83;;
16640;SDS011;8434;47.990;7.880;2022-12-07T08:17:55;9.33;;;6.47;;
16640;SDS011;8434;47.990;7.880;2022-12-07T08:20:40;7.83;;;4.77;;
16640;SDS011;8434;47.990;7.880;2022-12-07T08:23:25;7.47;;;5.00;;
16640;SDS011;8434;47.990;7.880;2022-12-07T08:26:11;7.03;;;4.50;;
16640;SDS011;8434;47.990;7.880;2022-12-07T08:28:56;6.10;;;4.57;;
16640;SDS011;8434;47.990;7.880;2022-12-07T08:31:41;5.40;;;3.80;;
16640;SDS011;8434;47.990;7.880;2022-12-07T08:34:27;7.50;;;5.17;;
16640;SDS011;8434;47.990;7.880;2022-12-07T08:37:12;8.80;;;5.00;;
16640;SDS011;8434;47.990;7.880;2022-12-07T08:39:57;6.10;;;4.13;;
16640;SDS011;8434;47.990;7.880;2022-12-07T08:42:42;5.67;;;4.03;;
16640;SDS011;8434;47.990;7.880;2022-12-07T08:45:28;5.30;;;4.17;;
16640;SDS011;8434;47.990;7.880;2022-12-07T08:48:16;4.40;;;3.80;;
16640;SDS011;8434;47.990;7.880;2022-12-07T08:51:07;3.93;;;3.40;;
16640;SDS011;8434;47.990;7.880;2022-12-07T08:53:52;4.90;;;3.80;;
16640;SDS011;8434;47.990;7.880;2022-12-07T08:56:37;5.00;;;3.97;;
16640;SDS011;8434;47.990;7.880;2022-12-07T08:59:22;5.30;;;3.90;;
16640;SDS011;8434;47.990;7.880;2022-12-07T09:02:08;6.17;;;4.67;;
16640;SDS011;8434;47.990;7.880;2022-12-07T09:04:53;5.90;;;4.33;;
16640;SDS011;8434;47.990;7.880;2022-12-07T09:07:39;8.50;;;5.30;;
16640;SDS011;8434;47.990;7.880;2022-12-07T09:10:24;6.53;;;4.90;;
16640;SDS011;8434;47.990;7.880;2022-12-07T09:13:09;8.40;;;5.40;;
16640;SDS011;8434;47.990;7.880;2022-12-07T09:15:54;5.23;;;4.70;;
16640;SDS011;8434;47.990;7.880;2022-12-07T09:18:39;8.40;;;6.00;;
16640;SDS011;8434;47.990;7.880;2022-12-07T09:21:24;8.07;;;5.20;;
16640;SDS011;8434;47.990;7.880;2022-12-07T09:24:11;8.13;;;5.90;;
16640;SDS011;8434;47.990;7.880;2022-12-07T09:26:56;7.50;;;5.30;;
16640;SDS011;8434;47.990;7.880;2022-12-07T09:29:41;7.93;;;6.00;;
16640;SDS011;8434;47.990;7.880;2022-12-07T09:32:26;7.50;;;5.43;;
16640;SDS011;8434;47.990;7.880;2022-12-07T09:35:11;8.17;;;5.23;;
16640;SDS011;8434;47.990;7.880;2022-12-07T09:37:55;7.23;;;4.93;;
16640;SDS011;8434;47.990;7.880;2022-12-07T09:40:42;6.53;;;4.87;;
16640;SDS011;8434;47.990;7.880;2022-12-07T09:43:27;5.30;;;4.37;;
16640;SDS011;8434;47.990;7.880;2022-12-07T09:46:13;5.90;;;4.73;;
16640;SDS011;8434;47.990;7.880;2022-12-07T09:48:59;5.90;;;5.03;;
16640;SDS011;8434;47.990;7.880;2022-12-07T09:51:44;6.77;;;4.43;;
16640;SDS011;8434;47.990;7.880;2022-12-07T09:54:29;4.97;;;4.07;;
16640;SDS011;8434;47.990;7.880;2022-12-07T09:57:16;6.60;;;4.37;;
16640;SDS011;8434;47.990;7.880;2022-12-07T10:00:03;5.40;;;4.10;;
16640;SDS011;8434;47.990;7.880;2022-12-07T10:02:50;5.13;;;4.20;;
16640;SDS011;8434;47.990;7.880;2022-12-07T10:05:35;5.13;;;4.33;;
16640;SDS011;8434;47.990;7.880;2022-12-07T10:08:21;5.90;;;4.50;;
16640;SDS011;8434;47.990;7.880;2022-12-07T10:11:06;6.60;;;4.63;;
16640;SDS011;8434;47.990;7.880;2022-12-07T10:13:55;5.20;;;4.70;;
16640;SDS011;8434;47.990;7.880;2022-12-07T10:16:54;5.67;;;4.73;;
16640;SDS011;8434;47.990;7.880;2022-12-07T10:19:39;7.07;;;5.30;;
16640;SDS011;8434;47.990;7.880;2022-12-07T10:22:23;7.10;;;4.70;;
16640;SDS011;8434;47.990;7.880;2022-12-07T10:25:09;6.10;;;4.87;;
16640;SDS011;8434;47.990;7.880;2022-12-07T10:28:10;6.90;;;4.77;;
16640;SDS011;8434;47.990;7.880;2022-12-07T10:30:58;7.00;;;4.77;;
16640;SDS011;8434;47.990;7.880;2022-12-07T10:33:50;6.27;;;4.57;;
16640;SDS011;8434;47.990;7.880;2022-12-07T10:36:36;6.60;;;5.20;;
16640;SDS011;8434;47.990;7.880;2022-12-07T10:39:22;5.13;;;4.40;;
16640;SDS011;8434;47.990;7.880;2022-12-07T10:42:15;6.50;;;4.87;;
16640;SDS011;8434;47.990;7.880;2022-12-07T10:45:07;4.53;;;3.70;;
16640;SDS011;8434;47.990;7.880;2022-12-07T10:47:55;4.90;;;4.10;;
16640;SDS011;8434;47.990;7.880;2022-12-07T10:50:52;3.60;;;2.67;;
16640;SDS011;8434;47.990;7.880;2022-12-07T10:53:45;3.90;;;2.60;;
16640;SDS011;8434;47.990;7.880;2022-12-07T10:56:39;2.60;;;2.37;;
16640;SDS011;8434;47.990;7.880;2022-12-07T10:59:32;3.57;;;2.90;;
16640;SDS011;8434;47.990;7.880;2022-12-07T11:02:30;4.80;;;3.27;;
16640;SDS011;8434;47.990;7.880;2022-12-07T11:05:21;4.60;;;2.90;;
16640;SDS011;8434;47.990;7.880;2022-12-07T11:08:11;4.07;;;2.80;;
16640;SDS011;8434;47.990;7.880;2022-12-07T11:10:59;2.97;;;2.67;;
16640;SDS011;8434;47.990;7.880;2022-12-07T11:13:48;3.53;;;2.90;;
16640;SDS011;8434;47.990;7.880;2022-12-07T11:19:45;3.40;;;2.43;;
16640;SDS011;8434;47.990;7.880;2022-12-07T11:22:39;4.30;;;2.60;;
16640;SDS011;8434;47.990;7.880;2022-12-07T11:25:27;4.23;;;3.20;;
16640;SDS011;8434;47.990;7.880;2022-12-07T11:28:20;3.63;;;2.83;;
16640;SDS011;8434;47.990;7.880;2022-12-07T11:31:11;3.23;;;2.70;;
16640;SDS011;8434;47.990;7.880;2022-12-07T11:33:59;3.30;;;2.53;;
16640;SDS011;8434;47.990;7.880;2022-12-07T11:36:45;5.23;;;3.07;;
16640;SDS011;8434;47.990;7.880;2022-12-07T11:39:34;3.40;;;2.60;;
16640;SDS011;8434;47.990;7.880;2022-12-07T11:42:21;2.43;;;2.00;;
16640;SDS011;8434;47.990;7.880;2022-12-07T11:45:10;2.93;;;2.53;;
16640;SDS011;8434;47.990;7.880;2022-12-07T11:47:58;3.77;;;2.20;;
16640;SDS011;8434;47.990;7.880;2022-12-07T11:50:45;3.40;;;2.27;;
16640;SDS011;8434;47.990;7.880;2022-12-07T11:53:33;5.97;;;3.40;;
16640;SDS011;8434;47.990;7.880;2022-12-07T11:56:20;4.60;;;2.67;;
16640;SDS011;8434;47.990;7.880;2022-12-07T11:59:08;2.77;;;2.30;;
16640;SDS011;8434;47.990;7.880;2022-12-07T12:01:56;4.03;;;2.60;;
16640;SDS011;8434;47.990;7.880;2022-12-07T12:04:46;2.53;;;2.13;;
16640;SDS011;8434;47.990;7.880;2022-12-07T12:07:32;2.53;;;2.00;;
16640;SDS011;8434;47.990;7.880;2022-12-07T12:10:19;4.97;;;2.90;;
16640;SDS011;8434;47.990;7.880;2022-12-07T12:13:10;3.80;;;3.03;;
16640;SDS011;8434;47.990;7.880;2022-12-07T12:16:02;4.80;;;3.33;;
16640;SDS011;8434;47.990;7.880;2022-12-07T12:19:03;3.03;;;2.63;;
16640;SDS011;8434;47.990;7.880;2022-12-07T12:21:49;4.37;;;2.77;;
16640;SDS011;8434;47.990;7.880;2022-12-07T12:24:38;3.23;;;2.67;;
16640;SDS011;8434;47.990;7.880;2022-12-07T12:27:25;3.33;;;2.30;;
16640;SDS011;8434;47.990;7.880;2022-12-07T12:30:25;2.93;;;1.90;;
16640;SDS011;8434;47.990;7.880;2022-12-07T12:33:13;3.77;;;2.53;;
16640;SDS011;8434;47.990;7.880;2022-12-07T12:36:16;3.93;;;2.70;;
16640;SDS011;8434;47.990;7.880;2022-12-07T12:39:09;3.70;;;3.00;;
16640;SDS011;8434;47.990;7.880;2022-12-07T12:41:57;4.33;;;3.37;;
16640;SDS011;8434;47.990;7.880;2022-12-07T12:47:57;4.90;;;3.67;;
16640;SDS011;8434;47.990;7.880;2022-12-07T12:50:42;4.57;;;3.43;;
16640;SDS011;8434;47.990;7.880;2022-12-07T12:53:27;5.27;;;3.27;;
16640;SDS011;8434;47.990;7.880;2022-12-07T12:56:28;4.70;;;3.93;;
16640;SDS011;8434;47.990;7.880;2022-12-07T12:59:24;6.57;;;4.90;;
16640;SDS011;8434;47.990;7.880;2022-12-07T13:02:16;4.87;;;3.63;;
16640;SDS011;8434;47.990;7.880;2022-12-07T13:05:16;6.33;;;4.07;;
16640;SDS011;8434;47.990;7.880;2022-12-07T13:08:02;6.87;;;3.93;;
16640;SDS011;8434;47.990;7.880;2022-12-07T13:10:47;6.63;;;5.67;;
16640;SDS011;8434;47.990;7.880;2022-12-07T13:13:33;5.60;;;4.10;;
16640;SDS011;8434;47.990;7.880;2022-12-07T13:22:35;5.43;;;3.37;;
16640;SDS011;8434;47.990;7.880;2022-12-07T13:25:28;5.03;;;3.70;;
16640;SDS011;8434;47.990;7.880;2022-12-07T13:28:15;4.93;;;3.47;;
16640;SDS011;8434;47.990;7.880;2022-12-07T13:31:09;4.60;;;3.37;;
16640;SDS011;8434;47.990;7.880;2022-12-07T13:33:56;5.33;;;3.57;;
16640;SDS011;8434;47.990;7.880;2022-12-07T13:36:43;3.80;;;3.20;;
16640;SDS011;8434;47.990;7.880;2022-12-07T13:39:32;2.83;;;2.10;;
16640;SDS011;8434;47.990;7.880;2022-12-07T13:42:19;3.00;;;2.23;;
16640;SDS011;8434;47.990;7.880;2022-12-07T13:45:17;5.67;;;3.93;;
16640;SDS011;8434;47.990;7.880;2022-12-07T13:48:02;4.87;;;3.73;;
16640;SDS011;8434;47.990;7.880;2022-12-07T13:50:52;6.30;;;4.97;;
16640;SDS011;8434;47.990;7.880;2022-12-07T13:53:45;6.63;;;4.50;;
16640;SDS011;8434;47.990;7.880;2022-12-07T13:56:33;5.17;;;3.73;;
16640;SDS011;8434;47.990;7.880;2022-12-07T13:59:19;9.77;;;6.50;;
16640;SDS011;8434;47.990;7.880;2022-12-07T14:02:16;6.33;;;4.63;;
16640;SDS011;8434;47.990;7.880;2022-12-07T14:05:06;6.40;;;4.70;;
16640;SDS011;8434;47.990;7.880;2022-12-07T14:07:54;5.97;;;4.20;;
16640;SDS011;8434;47.990;7.880;2022-12-07T14:10:40;5.37;;;3.77;;
16640;SDS011;8434;47.990;7.880;2022-12-07T14:13:29;5.77;;;4.27;;
16640;SDS011;8434;47.990;7.880;2022-12-07T14:16:21;5.00;;;3.90;;
16640;SDS011;8434;47.990;7.880;2022-12-07T14:19:38;4.70;;;3.53;;
16640;SDS011;8434;47.990;7.880;2022-12-07T14:22:27;8.03;;;4.40;;
16640;SDS011;8434;47.990;7.880;2022-12-07T14:25:17;7.23;;;5.30;;
16640;SDS011;8434;47.990;7.880;2022-12-07T14:28:03;4.83;;;3.93;;
16640;SDS011;8434;47.990;7.880;2022-12-07T14:30:49;5.77;;;4.00;;
16640;SDS011;8434;47.990;7.880;2022-12-07T14:33:34;5.13;;;3.80;;
16640;SDS011;8434;47.990;7.880;2022-12-07T14:36:19;6.10;;;4.00;;
16640;SDS011;8434;47.990;7.880;2022-12-07T14:39:04;6.50;;;4.40;;
16640;SDS011;8434;47.990;7.880;2022-12-07T14:41:48;6.40;;;4.63;;
16640;SDS011;8434;47.990;7.880;2022-12-07T14:44:36;7.13;;;5.00;;
16640;SDS011;8434;47.990;7.880;2022-12-07T14:47:23;8.20;;;4.83;;
16640;SDS011;8434;47.990;7.880;2022-12-07T14:50:10;6.73;;;4.43;;
16640;SDS011;8434;47.990;7.880;2022-12-07T14:52:56;5.63;;;4.10;;
16640;SDS011;8434;47.990;7.880;2022-12-07T14:55:43;5.27;;;4.07;;
16640;SDS011;8434;47.990;7.880;2022-12-07T14:58:28;6.73;;;4.13;;
16640;SDS011;8434;47.990;7.880;2022-12-07T15:01:14;4.73;;;3.40;;
16640;SDS011;8434;47.990;7.880;2022-12-07T15:04:00;6.13;;;4.17;;
16640;SDS011;8434;47.990;7.880;2022-12-07T15:06:54;6.10;;;4.33;;
16640;SDS011;8434;47.990;7.880;2022-12-07T15:09:39;6.17;;;3.87;;
16640;SDS011;8434;47.990;7.880;2022-12-07T15:12:24;6.50;;;4.03;;
16640;SDS011;8434;47.990;7.880;2022-12-07T15:15:09;6.23;;;4.43;;
16640;SDS011;8434;47.990;7.880;2022-12-07T15:17:54;6.17;;;4.00;;
16640;SDS011;8434;47.990;7.880;2022-12-07T15:20:40;6.23;;;4.63;;
16640;SDS011;8434;47.990;7.880;2022-12-07T15:23:25;5.87;;;4.17;;
16640;SDS011;8434;47.990;7.880;2022-12-07T15:26:10;9.43;;;5.40;;
16640;SDS011;8434;47.990;7.880;2022-12-07T15:28:55;7.57;;;4.90;;
16640;SDS011;8434;47.990;7.880;2022-12-07T15:31:40;6.57;;;5.10;;
16640;SDS011;8434;47.990;7.880;2022-12-07T15:34:25;8.13;;;5.50;;
16640;SDS011;8434;47.990;7.880;2022-12-07T15:37:13;7.13;;;4.83;;
16640;SDS011;8434;47.990;7.880;2022-12-07T15:39:58;6.63;;;4.53;;
16640;SDS011;8434;47.990;7.880;2022-12-07T15:42:43;7.03;;;4.70;;
16640;SDS011;8434;47.990;7.880;2022-12-07T15:45:28;7.90;;;5.33;;
16640;SDS011;8434;47.990;7.880;2022-12-07T15:48:13;9.40;;;4.83;;
16640;SDS011;8434;47.990;7.880;2022-12-07T15:51:01;8.83;;;5.40;;
16640;SDS011;8434;47.990;7.880;2022-12-07T15:53:48;10.10;;;5.67;;
16640;SDS011;8434;47.990;7.880;2022-12-07T15:56:33;8.90;;;5.10;;
16640;SDS011;8434;47.990;7.880;2022-12-07T15:59:18;9.00;;;5.67;;
16640;SDS011;8434;47.990;7.880;2022-12-07T16:02:02;9.77;;;5.97;;
16640;SDS011;8434;47.990;7.880;2022-12-07T16:04:47;8.57;;;5.67;;
16640;SDS011;8434;47.990;7.880;2022-12-07T16:07:32;9.27;;;5.00;;
16640;SDS011;8434;47.990;7.880;2022-12-07T16:10:18;8.27;;;4.90;;
16640;SDS011;8434;47.990;7.880;2022-12-07T16:13:03;5.77;;;4.50;;
16640;SDS011;8434;47.990;7.880;2022-12-07T16:15:48;6.40;;;4.30;;
16640;SDS011;8434;47.990;7.880;2022-12-07T16:18:33;6.27;;;4.17;;
16640;SDS011;8434;47.990;7.880;2022-12-07T16:21:18;6.17;;;4.53;;
16640;SDS011;8434;47.990;7.880;2022-12-07T16:24:04;7.27;;;4.43;;
16640;SDS011;8434;47.990;7.880;2022-12-07T16:26:51;6.87;;;5.47;;
16640;SDS011;8434;47.990;7.880;2022-12-07T16:29:36;6.97;;;5.10;;
16640;SDS011;8434;47.990;7.880;2022-12-07T16:32:21;7.37;;;4.30;;
16640;SDS011;8434;47.990;7.880;2022-12-07T16:35:06;3.87;;;3.20;;
16640;SDS011;8434;47.990;7.880;2022-12-07T16:37:51;9.10;;;4.80;;
16640;SDS011;8434;47.990;7.880;2022-12-07T16:40:36;4.90;;;3.97;;
16640;SDS011;8434;47.990;7.880;2022-12-07T16:43:22;6.43;;;4.27;;
16640;SDS011;8434;47.990;7.880;2022-12-07T16:46:07;5.63;;;4.10;;
16640;SDS011;8434;47.990;7.880;2022-12-07T16:48:53;9.53;;;5.83;;
16640;SDS011;8434;47.990;7.880;2022-12-07T16:51:37;12.43;;;6.60;;
16640;SDS011;8434;47.990;7.880;2022-12-07T16:54:22;10.87;;;6.60;;
16640;SDS011;8434;47.990;7.880;2022-12-07T16:57:07;10.53;;;6.77;;
16640;SDS011;8434;47.990;7.880;2022-12-07T16:59:54;11.03;;;6.17;;
16640;SDS011;8434;47.990;7.880;2022-12-07T17:02:39;8.93;;;5.33;;
16640;SDS011;8434;47.990;7.880;2022-12-07T17:05:24;7.23;;;4.80;;
16640;SDS011;8434;47.990;7.880;2022-12-07T17:08:11;11.50;;;5.43;;
16640;SDS011;8434;47.990;7.880;2022-12-07T17:10:56;12.20;;;5.00;;